Main page
METAR-TAF:

METAR-TAF

Airports :

Kulob Airport

Kulob, Tajikistan

latitude: 37-59-18N, longitude: 069-48-18E, elevation: 699 m

Current weather observation

The report was made 39 minutes ago, at 13:30 UTC
Wind 4 kt from the South/Southwest
Temperature 35°C
Humidity 25%
Pressure 1007 hPa
Visibility 10 km or more

METAR: UTDK 161330Z 20002MPS 9999 NSC 35/12 Q1007 R01/09//70 RMK QFE698/0930

Time: 19:09 (14:09 UTC)

Forecast

The report was made 2 hours and 9 minutes ago, at 12:00 UTC
Forecast valid from 16 at 13 UTC to 16 at 22 UTC
Wind 10 kt from the North/Northeast
Visibility: 6000 m
Temporary
from 16 at 13 UTC to 16 at 16 UTC
Wind 10 kt from the South/Southwest
Temporary
from 16 at 16 UTC to 16 at 22 UTC
Wind 4 kt from variable directions

TAF: UTDK 161200Z 1613/1622 03005MPS 6000 NSC TEMPO 1613/1616 20005MPS TEMPO 1616/1622 VRB02MPS

Weather observations and forecasts of more than 4000 airports (METAR and TAF reports).

The available stations are represented by yellow and red dots on the map.

Hover mouse over dot to see the name of the station.

Then click to see weather observations and forecasts.

To change the map : click on the green buttons with a black cross to zoom in, on the green button with a dash to zoom out, or on the green arrows for adjacent maps.


METAR-TAF: